createdAt,value
2023-03-01T00:00:02.643Z,12.70
2023-03-01T00:03:00.636Z,9.10
2023-03-01T00:05:30.409Z,13.43
2023-03-01T00:08:00.220Z,7.03
2023-03-01T00:10:31.154Z,11.07
2023-03-01T00:13:00.469Z,10.82
2023-03-01T00:15:30.032Z,7.97
2023-03-01T00:17:59.359Z,9.32
2023-03-01T00:20:29.014Z,14.07
2023-03-01T00:22:58.393Z,11.05
2023-03-01T00:25:28.113Z,7.80
2023-03-01T00:27:58.950Z,7.40
2023-03-01T00:30:28.581Z,9.55
2023-03-01T00:32:57.878Z,11.25
2023-03-01T00:35:27.694Z,10.48
2023-03-01T00:37:59.105Z,11.88
2023-03-01T00:40:29.726Z,12.00
2023-03-01T00:43:00.467Z,13.48
2023-03-01T00:45:31.975Z,10.50
2023-03-01T00:48:01.651Z,15.75
2023-03-01T00:50:31.568Z,11.25
2023-03-01T00:53:00.852Z,10.48
2023-03-01T00:55:30.462Z,10.98
2023-03-01T00:58:01.831Z,13.68
2023-03-01T01:00:32.003Z,13.00
2023-03-01T01:03:01.434Z,13.10
2023-03-01T01:05:31.036Z,12.85
2023-03-01T01:08:00.206Z,10.85
2023-03-01T01:10:29.733Z,11.57
2023-03-01T01:13:00.416Z,14.23
2023-03-01T01:15:30.627Z,11.45
2023-03-01T01:18:00.021Z,11.65
2023-03-01T01:20:30.554Z,10.98
2023-03-01T01:23:00.040Z,10.60
2023-03-01T01:25:29.670Z,17.98
2023-03-01T01:28:00.512Z,10.73
2023-03-01T01:30:30.499Z,9.73
2023-03-01T01:32:59.943Z,13.70
2023-03-01T01:35:30.733Z,15.73
2023-03-01T01:38:00.169Z,11.02
2023-03-01T01:40:29.720Z,10.18
2023-03-01T01:43:00.772Z,10.85
2023-03-01T01:45:34.837Z,13.75
2023-03-01T01:48:08.808Z,9.02
2023-03-01T01:50:41.461Z,11.02
2023-03-01T01:53:15.167Z,14.30
2023-03-01T01:55:47.915Z,15.32
2023-03-01T01:58:22.736Z,14.75
2023-03-01T02:00:52.510Z,11.55
2023-03-01T02:03:26.632Z,12.63
2023-03-01T02:06:00.913Z,15.85
2023-03-01T02:08:32.898Z,10.52
2023-03-01T02:11:05.360Z,8.77
2023-03-01T02:13:37.782Z,10.00
2023-03-01T02:16:10.761Z,13.95
2023-03-01T02:18:41.796Z,15.20
2023-03-01T02:21:33.538Z,11.27
2023-03-01T02:24:08.826Z,14.38
2023-03-01T02:26:47.490Z,10.60
2023-03-01T02:29:18.330Z,14.00
2023-03-01T02:31:48.055Z,14.75
2023-03-01T02:34:19.755Z,9.93
2023-03-01T02:36:54.579Z,18.73
2023-03-01T02:39:28.418Z,12.80
2023-03-01T02:42:00.045Z,11.77
2023-03-01T02:44:30.780Z,12.25
2023-03-01T02:47:05.570Z,14.85
2023-03-01T02:49:37.393Z,13.95
2023-03-01T02:52:36.326Z,14.23
2023-03-01T02:55:10.570Z,13.27
2023-03-01T02:57:42.466Z,18.10
2023-03-01T03:00:20.395Z,16.25
2023-03-01T03:02:52.170Z,13.82
2023-03-01T03:05:25.056Z,19.95
2023-03-01T03:07:58.351Z,19.77
2023-03-01T03:10:30.564Z,17.60
2023-03-01T03:13:01.820Z,16.83
2023-03-01T03:15:33.737Z,16.52
2023-03-01T03:18:04.449Z,17.05
2023-03-01T03:20:34.692Z,20.13
2023-03-01T03:23:04.648Z,16.38
2023-03-01T03:25:33.966Z,24.17
2023-03-01T03:28:10.437Z,17.20
2023-03-01T03:35:54.029Z,23.00
2023-03-01T03:38:23.597Z,16.25
2023-03-01T03:40:54.355Z,17.00
2023-03-01T03:43:25.506Z,18.02
2023-03-01T03:45:55.083Z,20.52
2023-03-01T03:48:25.010Z,20.52
2023-03-01T03:50:57.644Z,19.52
2023-03-01T03:53:29.932Z,19.02
2023-03-01T03:55:59.486Z,19.40
2023-03-01T03:58:29.663Z,21.52
2023-03-01T04:00:59.756Z,21.67
2023-03-01T04:03:30.814Z,28.63
2023-03-01T04:06:02.564Z,22.35
2023-03-01T04:08:32.253Z,22.80
2023-03-01T04:11:24.362Z,20.63
2023-03-01T04:13:55.216Z,22.75
2023-03-01T04:16:25.594Z,26.80
2023-03-01T04:18:55.676Z,26.95
2023-03-01T04:21:26.383Z,22.83
2023-03-01T04:23:55.902Z,28.90
2023-03-01T04:26:25.099Z,23.08
2023-03-01T04:28:54.652Z,27.70
2023-03-01T04:31:24.270Z,22.05
2023-03-01T04:33:55.558Z,22.30
2023-03-01T04:36:29.073Z,29.38
2023-03-01T04:38:59.372Z,28.75
2023-03-01T04:41:28.877Z,23.00
2023-03-01T04:44:01.147Z,28.65
2023-03-01T04:46:30.856Z,22.13
2023-03-01T04:49:00.778Z,31.38
2023-03-01T04:51:33.265Z,26.33
2023-03-01T04:54:02.859Z,24.05
2023-03-01T04:56:32.534Z,25.58
2023-03-01T04:59:06.743Z,20.55
2023-03-01T05:01:36.770Z,29.88
2023-03-01T05:04:06.582Z,29.73
2023-03-01T05:06:37.265Z,27.77
2023-03-01T05:09:06.883Z,28.08
2023-03-01T05:11:37.010Z,23.83
2023-03-01T05:14:08.012Z,25.30
2023-03-01T05:16:38.378Z,23.30
2023-03-01T05:19:12.687Z,25.30
2023-03-01T05:21:58.827Z,28.58
2023-03-01T05:24:30.009Z,28.55
2023-03-01T05:26:59.388Z,33.47
2023-03-01T05:29:31.408Z,29.98
2023-03-01T05:32:02.261Z,27.35
2023-03-01T05:34:34.258Z,31.92
2023-03-01T05:37:06.254Z,32.70
2023-03-01T05:39:35.839Z,33.50
2023-03-01T05:42:05.251Z,32.00
2023-03-01T05:44:34.920Z,25.83
2023-03-01T05:47:04.159Z,29.05
2023-03-01T05:49:35.164Z,32.83
2023-03-01T05:52:05.815Z,39.13
2023-03-01T05:54:35.556Z,39.53
2023-03-01T05:57:04.841Z,42.75
2023-03-01T05:59:34.526Z,42.45
2023-03-01T06:02:03.923Z,33.08
2023-03-01T06:04:33.509Z,28.40
2023-03-01T06:07:04.213Z,27.67
2023-03-01T06:09:33.851Z,26.35
2023-03-01T06:12:03.201Z,28.65
2023-03-01T06:14:32.811Z,31.70
2023-03-01T06:17:02.234Z,22.73
2023-03-01T06:19:32.017Z,26.67
2023-03-01T06:22:01.303Z,20.73
2023-03-01T06:24:32.553Z,27.17
2023-03-01T06:27:01.887Z,22.98
2023-03-01T06:29:31.809Z,24.33
2023-03-01T06:32:01.020Z,23.08
2023-03-01T06:34:30.735Z,24.30
2023-03-01T06:37:00.186Z,23.27
2023-03-01T06:39:32.147Z,21.17
2023-03-01T06:42:01.794Z,24.83
2023-03-01T06:44:31.584Z,20.17
2023-03-01T06:47:00.890Z,20.48
2023-03-01T06:49:31.229Z,21.33
2023-03-01T06:52:00.518Z,19.75
2023-03-01T06:54:31.444Z,22.90
2023-03-01T06:57:00.631Z,18.50
2023-03-01T06:59:30.442Z,20.17
2023-03-01T07:01:59.690Z,20.48
2023-03-01T07:04:29.678Z,25.50
2023-03-01T07:06:59.134Z,18.20
2023-03-01T07:09:28.741Z,24.02
2023-03-01T07:11:59.784Z,22.40
2023-03-01T07:14:29.662Z,20.90
2023-03-01T07:16:59.198Z,17.38
2023-03-01T07:19:29.034Z,22.00
2023-03-01T07:21:58.425Z,23.05
2023-03-01T07:24:27.965Z,20.17
2023-03-01T07:26:58.572Z,17.67
2023-03-01T07:29:29.821Z,20.85
2023-03-01T07:31:59.534Z,24.40
2023-03-01T07:34:29.139Z,21.60
2023-03-01T07:36:58.516Z,18.83
2023-03-01T07:39:28.121Z,19.88
2023-03-01T07:41:58.731Z,16.17
2023-03-01T07:44:29.332Z,20.65
2023-03-01T07:46:59.325Z,21.00
2023-03-01T07:49:28.840Z,23.45
2023-03-01T07:51:58.206Z,20.70
2023-03-01T07:54:28.651Z,22.65
2023-03-01T07:56:59.884Z,17.20
2023-03-01T07:59:30.255Z,17.92
2023-03-01T08:01:59.800Z,20.00
2023-03-01T08:04:29.881Z,17.52
2023-03-01T08:06:59.349Z,21.15
2023-03-01T08:09:29.597Z,19.92
2023-03-01T08:12:02.666Z,18.23
2023-03-01T08:14:32.326Z,20.70
2023-03-01T08:25:26.177Z,16.08
2023-03-01T08:27:57.079Z,15.95
2023-03-01T08:30:26.423Z,14.20
2023-03-01T08:32:56.207Z,15.50
2023-03-01T08:35:25.797Z,15.80
2023-03-01T08:37:55.630Z,15.82
2023-03-01T08:40:25.048Z,13.73
2023-03-01T08:42:54.778Z,16.08
2023-03-01T08:45:25.442Z,18.45
2023-03-01T08:47:55.986Z,14.90
2023-03-01T08:50:25.623Z,15.85
2023-03-01T08:52:55.444Z,15.27
2023-03-01T08:55:24.695Z,16.02
2023-03-01T08:57:54.378Z,14.45
2023-03-01T09:00:26.072Z,16.38
2023-03-01T09:02:55.633Z,13.32
2023-03-01T09:05:25.369Z,12.73
2023-03-01T09:07:54.917Z,18.65
2023-03-01T09:10:24.335Z,14.00
2023-03-01T09:12:54.387Z,13.18
2023-03-01T09:15:25.285Z,15.68
2023-03-01T09:17:54.878Z,13.38
2023-03-01T09:20:24.105Z,12.23
2023-03-01T09:22:54.636Z,14.43
2023-03-01T09:25:24.033Z,11.40
2023-03-01T09:28:30.171Z,14.82
2023-03-01T09:31:03.402Z,16.27
2023-03-01T09:33:34.254Z,14.35
2023-03-01T09:36:04.978Z,15.15
2023-03-01T09:38:34.833Z,11.93
2023-03-01T09:41:05.046Z,15.65
2023-03-01T09:46:17.729Z,17.23
2023-03-01T09:48:52.693Z,12.73
2023-03-01T09:51:29.118Z,13.48
2023-03-01T09:54:02.021Z,13.32
2023-03-01T09:56:35.866Z,12.15
2023-03-01T09:59:20.489Z,15.18
2023-03-01T10:01:59.141Z,15.10
2023-03-01T10:04:42.637Z,13.05
2023-03-01T10:07:26.392Z,14.80
2023-03-01T10:09:56.159Z,16.75
2023-03-01T10:12:30.174Z,15.02
2023-03-01T10:15:05.418Z,17.55
2023-03-01T10:17:40.275Z,13.93
2023-03-01T10:20:28.689Z,12.77
2023-03-01T10:22:58.178Z,11.88
2023-03-01T10:25:46.897Z,10.40
2023-03-01T10:28:22.446Z,11.13
2023-03-01T10:30:52.700Z,14.18
2023-03-01T10:33:28.140Z,12.27
2023-03-01T10:35:57.823Z,10.05
2023-03-01T10:38:28.176Z,11.73
2023-03-01T10:40:59.615Z,10.95
2023-03-01T10:43:45.695Z,12.43
2023-03-01T10:46:29.757Z,10.98
2023-03-01T10:49:18.689Z,10.63
2023-03-01T10:51:50.541Z,11.02
2023-03-01T10:54:21.864Z,9.20
2023-03-01T10:56:56.601Z,9.30
2023-03-01T10:59:29.845Z,8.60
2023-03-01T11:02:25.762Z,11.23
2023-03-01T11:05:03.016Z,11.50
2023-03-01T11:07:33.069Z,9.50
2023-03-01T11:10:13.726Z,8.95
2023-03-01T11:12:43.815Z,11.18
2023-03-01T11:15:28.195Z,8.52
2023-03-01T11:18:09.020Z,9.38
2023-03-01T11:20:44.727Z,8.90
2023-03-01T11:23:16.464Z,8.25
2023-03-01T11:25:50.580Z,8.63
2023-03-01T11:28:22.585Z,9.80
2023-03-01T11:31:07.570Z,9.48
2023-03-01T11:33:44.452Z,8.68
2023-03-01T11:36:26.993Z,9.27
2023-03-01T11:38:57.596Z,11.10
2023-03-01T11:41:32.055Z,9.05
2023-03-01T11:44:05.490Z,9.25
2023-03-01T11:46:59.942Z,9.57
2023-03-01T11:49:52.928Z,11.55
2023-03-01T11:52:34.903Z,9.70
2023-03-01T11:55:21.563Z,9.43
2023-03-01T11:58:06.700Z,9.05
2023-03-01T12:01:04.598Z,9.60
2023-03-01T12:03:53.780Z,10.57
2023-03-01T12:06:50.174Z,12.07
2023-03-01T12:09:35.828Z,10.02
2023-03-01T12:12:37.434Z,9.63
2023-03-01T12:16:25.968Z,9.65
2023-03-01T12:19:37.353Z,13.90
2023-03-01T12:22:19.454Z,11.60
2023-03-01T12:25:20.998Z,11.32
2023-03-01T12:28:11.059Z,11.15
2023-03-01T12:30:52.681Z,12.20
2023-03-01T12:33:32.355Z,9.77
2023-03-01T12:36:43.682Z,9.18
2023-03-01T12:39:30.829Z,10.13
2023-03-01T12:42:10.266Z,9.02
2023-03-01T12:45:04.546Z,10.32
2023-03-01T12:47:57.807Z,10.80
2023-03-01T12:50:35.496Z,11.47
2023-03-01T12:53:05.142Z,9.27
2023-03-01T12:55:38.425Z,9.60
2023-03-01T12:58:27.080Z,11.02
2023-03-01T13:01:18.554Z,13.35
2023-03-01T13:04:15.197Z,10.95
2023-03-01T13:06:53.417Z,10.25
2023-03-01T13:09:31.154Z,9.93
2023-03-01T13:12:01.725Z,9.25
2023-03-01T13:14:47.657Z,8.80
2023-03-01T13:17:44.490Z,9.93
2023-03-01T13:20:20.253Z,9.15
2023-03-01T13:23:02.083Z,9.63
2023-03-01T13:25:37.699Z,11.30
2023-03-01T13:28:53.227Z,9.30
2023-03-01T13:32:08.145Z,9.05
2023-03-01T13:34:53.478Z,10.20
2023-03-01T13:37:36.624Z,8.98
2023-03-01T13:40:27.837Z,9.98
2023-03-01T13:43:06.345Z,9.07
2023-03-01T13:45:40.720Z,9.95
2023-03-01T13:48:24.426Z,8.35
2023-03-01T13:50:58.064Z,8.80
2023-03-01T13:53:32.071Z,9.68
2023-03-01T13:58:38.261Z,12.30
2023-03-01T14:01:09.724Z,13.15
2023-03-01T14:03:44.605Z,8.35
2023-03-01T14:06:21.025Z,9.68
2023-03-01T14:08:54.772Z,10.43
2023-03-01T14:11:37.426Z,9.75
2023-03-01T14:14:30.295Z,10.70
2023-03-01T14:17:08.839Z,9.25
2023-03-01T14:19:38.762Z,9.57
2023-03-01T14:22:21.516Z,9.95
2023-03-01T14:24:53.351Z,9.93
2023-03-01T14:27:23.386Z,10.00
2023-03-01T14:30:14.384Z,9.13
2023-03-01T14:32:43.882Z,8.45
2023-03-01T14:35:23.765Z,11.38
2023-03-01T14:37:54.859Z,8.93
2023-03-01T14:40:28.954Z,7.93
2023-03-01T14:43:01.257Z,10.25
2023-03-01T14:45:32.728Z,9.82
2023-03-01T14:48:04.536Z,10.35
2023-03-01T14:50:36.813Z,9.98
2023-03-01T14:53:17.290Z,9.60
2023-03-01T14:55:52.624Z,9.38
2023-03-01T14:58:25.354Z,9.75
2023-03-01T15:00:57.821Z,10.18
2023-03-01T15:03:33.622Z,9.88
2023-03-01T15:06:04.468Z,11.90
2023-03-01T15:08:37.483Z,11.95
2023-03-01T15:11:19.224Z,14.32
2023-03-01T15:13:48.707Z,14.45
2023-03-01T15:16:23.150Z,15.57
2023-03-01T15:18:55.179Z,14.50
2023-03-01T15:21:28.161Z,20.58
2023-03-01T15:24:12.700Z,20.40
2023-03-01T15:26:46.838Z,16.55
2023-03-01T15:29:19.950Z,22.00
2023-03-01T15:31:58.848Z,17.42
2023-03-01T15:34:31.866Z,20.70
2023-03-01T15:37:04.097Z,17.42
2023-03-01T15:39:40.900Z,18.30
2023-03-01T15:42:12.653Z,16.30
2023-03-01T15:44:46.205Z,20.92
2023-03-01T15:47:28.230Z,24.70
2023-03-01T15:49:59.584Z,28.48
2023-03-01T15:52:31.964Z,22.02
2023-03-01T15:55:06.564Z,22.80
2023-03-01T15:57:36.161Z,23.60
2023-03-01T16:00:12.478Z,26.50
2023-03-01T16:02:43.249Z,30.17
2023-03-01T16:05:23.101Z,31.33
2023-03-01T16:07:53.088Z,29.02
2023-03-01T16:10:24.431Z,27.45
2023-03-01T16:12:54.311Z,32.50
2023-03-01T16:15:26.038Z,41.70
2023-03-01T16:17:55.561Z,42.83
2023-03-01T16:20:30.107Z,42.90
2023-03-01T16:23:02.266Z,42.70
2023-03-01T16:25:34.383Z,41.40
2023-03-01T16:28:09.711Z,41.55
2023-03-01T16:30:40.630Z,40.88
2023-03-01T16:33:24.452Z,41.17
2023-03-01T16:35:57.596Z,47.33
2023-03-01T16:38:27.354Z,42.20
2023-03-01T16:40:58.071Z,45.20
2023-03-01T16:43:27.819Z,43.17
2023-03-01T16:45:57.229Z,37.30
2023-03-01T16:48:26.886Z,45.38
2023-03-01T16:51:01.104Z,36.85
2023-03-01T16:53:31.048Z,37.58
2023-03-01T16:56:02.579Z,40.60
2023-03-01T16:58:32.266Z,184.20
2023-03-01T17:01:08.183Z,100.85
2023-03-01T17:03:38.108Z,66.43
2023-03-01T17:06:08.913Z,66.68
2023-03-01T17:08:39.863Z,71.75
2023-03-01T17:11:12.958Z,58.42
2023-03-01T17:13:43.614Z,47.05
2023-03-01T17:16:15.781Z,51.40
2023-03-01T17:18:45.751Z,42.97
2023-03-01T17:21:16.021Z,47.97
2023-03-01T17:23:47.256Z,52.03
2023-03-01T17:26:18.482Z,42.80
2023-03-01T17:28:51.909Z,47.83
2023-03-01T17:31:22.393Z,42.85
2023-03-01T17:33:52.412Z,38.33
2023-03-01T17:36:21.910Z,41.35
2023-03-01T17:38:52.076Z,42.47
2023-03-01T17:41:25.147Z,41.20
2023-03-01T17:43:54.899Z,45.88
2023-03-01T17:46:24.739Z,68.10
2023-03-01T17:48:54.422Z,76.10
2023-03-01T17:51:24.155Z,81.70
2023-03-01T17:53:54.040Z,93.05
2023-03-01T17:56:25.009Z,77.50
2023-03-01T17:58:55.035Z,80.03
2023-03-01T18:01:24.792Z,85.05
2023-03-01T18:03:58.938Z,56.95
2023-03-01T18:06:32.087Z,67.28
2023-03-01T18:09:07.436Z,57.75
2023-03-01T18:11:47.901Z,106.85
2023-03-01T18:14:18.292Z,171.25
2023-03-01T18:16:48.940Z,67.35
2023-03-01T18:19:22.752Z,52.00
2023-03-01T18:21:54.379Z,46.53
2023-03-01T18:24:25.518Z,60.88
2023-03-01T18:26:58.034Z,48.55
2023-03-01T18:29:28.975Z,51.08
2023-03-01T18:31:58.991Z,65.82
2023-03-01T18:34:30.881Z,75.53
2023-03-01T18:37:09.114Z,83.93
2023-03-01T18:39:49.822Z,101.53
2023-03-01T18:42:27.451Z,37.85
2023-03-01T18:44:58.240Z,56.97
2023-03-01T18:47:29.467Z,54.53
2023-03-01T18:50:00.415Z,23.48
2023-03-01T18:52:30.658Z,21.63
2023-03-01T18:55:03.624Z,10.68
2023-03-01T18:57:57.620Z,20.10
2023-03-01T19:00:31.045Z,65.00
2023-03-01T19:03:05.182Z,18.83
2023-03-01T19:05:46.427Z,23.98
2023-03-01T19:08:16.230Z,19.17
2023-03-01T19:10:50.894Z,31.13
2023-03-01T19:13:22.710Z,40.83
2023-03-01T19:16:04.049Z,15.03
2023-03-01T19:18:36.351Z,23.30
2023-03-01T19:21:08.101Z,36.22
2023-03-01T19:23:41.809Z,29.50
2023-03-01T19:26:19.193Z,61.30
2023-03-01T19:28:52.098Z,43.95
2023-03-01T19:31:26.455Z,49.38
2023-03-01T19:34:11.007Z,42.72
2023-03-01T19:36:44.649Z,148.70
2023-03-01T19:39:16.161Z,22.90
2023-03-01T19:41:50.468Z,12.88
2023-03-01T19:44:25.013Z,12.90
2023-03-01T19:47:00.682Z,13.27
2023-03-01T19:49:32.269Z,11.30
2023-03-01T19:52:04.270Z,11.00
2023-03-01T19:54:35.157Z,32.00
2023-03-01T19:57:11.255Z,51.30
2023-03-01T19:59:47.087Z,32.90
2023-03-01T20:02:19.518Z,49.53
2023-03-01T20:04:51.900Z,45.38
2023-03-01T20:07:24.953Z,34.20
2023-03-01T20:09:56.725Z,28.48
2023-03-01T20:12:28.245Z,47.10
2023-03-01T20:14:59.672Z,43.58
2023-03-01T20:17:29.898Z,21.63
2023-03-01T20:20:00.355Z,29.05
2023-03-01T20:22:42.261Z,16.98
2023-03-01T20:25:13.492Z,25.88
2023-03-01T20:27:47.579Z,40.40
2023-03-01T20:30:19.466Z,27.23
2023-03-01T20:32:49.853Z,29.00
2023-03-01T20:35:22.039Z,55.28
2023-03-01T20:37:55.682Z,27.73
2023-03-01T20:40:28.866Z,23.30
2023-03-01T20:42:59.895Z,18.58
2023-03-01T20:45:33.766Z,19.88
2023-03-01T20:48:06.254Z,22.27
2023-03-01T20:50:42.565Z,21.08
2023-03-01T20:53:13.925Z,18.15
2023-03-01T20:55:48.276Z,18.17
2023-03-01T20:58:23.029Z,15.75
2023-03-01T21:01:03.200Z,12.43
2023-03-01T21:03:37.564Z,9.73
2023-03-01T21:06:09.178Z,8.18
2023-03-01T21:08:42.452Z,12.90
2023-03-01T21:11:12.468Z,9.98
2023-03-01T21:13:44.637Z,14.63
2023-03-01T21:16:21.103Z,11.60
2023-03-01T21:18:52.546Z,10.20
2023-03-01T21:21:24.402Z,8.55
2023-03-01T21:23:56.109Z,12.73
2023-03-01T21:26:29.015Z,22.83
2023-03-01T21:29:01.551Z,22.27
2023-03-01T21:31:36.453Z,13.82
2023-03-01T21:34:08.747Z,19.70
2023-03-01T21:36:39.875Z,13.00
2023-03-01T21:39:11.997Z,22.25
2023-03-01T21:41:41.661Z,25.65
2023-03-01T21:44:11.723Z,14.73
2023-03-01T21:46:43.201Z,17.42
2023-03-01T21:49:14.753Z,20.33
2023-03-01T21:51:44.163Z,17.58
2023-03-01T21:54:16.692Z,20.90
2023-03-01T21:56:47.217Z,21.38
2023-03-01T21:59:19.062Z,18.80
2023-03-01T22:01:50.638Z,14.18
2023-03-01T22:04:24.535Z,28.55
2023-03-01T22:06:55.791Z,23.02
2023-03-01T22:09:26.381Z,17.83
2023-03-01T22:12:02.423Z,22.05
2023-03-01T22:14:35.109Z,17.52
2023-03-01T22:17:06.090Z,16.85
2023-03-01T22:19:35.978Z,13.13
2023-03-01T22:22:05.415Z,17.77
2023-03-01T22:24:35.109Z,15.10
2023-03-01T22:27:04.594Z,13.77
2023-03-01T22:29:34.214Z,14.95
2023-03-01T22:32:05.350Z,9.85
2023-03-01T22:34:35.917Z,13.60
2023-03-01T22:37:06.200Z,10.57
2023-03-01T22:39:35.935Z,15.05
2023-03-01T22:42:06.156Z,12.70
2023-03-01T22:44:35.839Z,14.25
2023-03-01T22:47:06.673Z,14.20
2023-03-01T22:49:36.367Z,13.50
2023-03-01T22:52:06.269Z,9.13
2023-03-01T22:54:35.967Z,11.57
2023-03-01T22:57:05.341Z,16.25
2023-03-01T22:59:34.968Z,13.88
2023-03-01T23:02:05.700Z,18.13
2023-03-01T23:04:35.555Z,22.20
2023-03-01T23:07:04.945Z,15.80
2023-03-01T23:09:37.070Z,17.52
2023-03-01T23:12:09.211Z,14.55
2023-03-01T23:14:40.489Z,15.82
2023-03-01T23:17:12.912Z,14.07
2023-03-01T23:19:42.606Z,21.88
2023-03-01T23:22:12.119Z,18.02
2023-03-01T23:24:41.902Z,16.60
2023-03-01T23:27:13.945Z,13.27
2023-03-01T23:29:44.035Z,15.40
2023-03-01T23:32:15.833Z,15.52
2023-03-01T23:34:45.727Z,14.63
2023-03-01T23:37:15.139Z,13.50
2023-03-01T23:39:44.740Z,18.45
2023-03-01T23:42:14.192Z,16.58
2023-03-01T23:44:43.945Z,14.38
2023-03-01T23:47:16.291Z,18.65
2023-03-01T23:49:45.976Z,22.55
2023-03-01T23:52:17.442Z,15.68
2023-03-01T23:54:47.174Z,15.60
2023-03-01T23:57:16.462Z,14.63
2023-03-01T23:59:46.057Z,20.25
